KBNL

Barnwell Regional Airport

Barnwell, South Carolina, USA
METAR KBNL 201715Z AUTO VRB06KT 10SM FEW030 SCT040 BKN046 26/21 A2996 RMK AO2
Observed Flight Rules
Oct-20 @ 17:15 UTC (33 minutes ago) Visual Flight Rules
Wind Visibility Clouds
Variable at 6 knots 10 miles
  • Few at 3,000' AGL
  • Scattered at 4,000' AGL
  • Broken at 4,600' AGL
Temperatures Readings
Current 26°C / 79°F
Dewpoint 21°C / 70°F
Humidity 74%
Altimeter 29.96" Hg
Pressure 1015 hPa
Elevation 75
METAR KBNL 201715Z AUTO VRB06KT 10SM FEW030 SCT040 BKN046 26/21 A2996 RMK AO2
Observed Flight Rules
Oct-20 @ 17:15 UTC
(33 minutes ago)
VFR
Wind Visibility
Variable at 6 knots 10 miles
Clouds
  • Few at 3,000' AGL
  • Scattered at 4,000' AGL
  • Broken at 4,600' AGL
Temperature Dewpoint
26°C / 79°F 21°C / 70°F
Humidity Altimeter Pressure
74% 29.96" Hg 1015 hPa